Time;durP1;ratioP1;P1;durP2;ratioP2;P2;SDS_P1;SDS_P2;PMS_P1;PMS_P2;Temp;Humidity;BMP_temperature;BMP_pressure;BME280_temperature;BME280_humidity;BME280_pressure;Samples;Min_cycle;Max_cycle;Signal;HPM_P1;HPM_P2
2022/08/09 00:00:44;;;;;;;5.63;3.58;;;;;;;;;;10133921;28;20081;-53
2022/08/09 00:05:43;;;;;;;7.68;3.80;;;;;;;;;;10134215;28;20094;-58
2022/08/09 00:11:03;;;;;;;8.98;3.92;;;;;;;;;;10133948;28;20093;-52
2022/08/09 00:16:21;;;;;;;4.53;3.70;;;;;;;;;;10132986;28;20074;-50
2022/08/09 00:21:33;;;;;;;4.13;3.67;;;;;;;;;;10140728;28;20090;-48
2022/08/09 00:26:33;;;;;;;4.82;4.30;;;;;;;;;;10139713;28;20487;-53
2022/08/09 00:31:31;;;;;;;8.00;4.35;;;;;;;;;;10143339;28;20075;-51
2022/08/09 00:36:50;;;;;;;4.70;4.30;;;;;;;;;;10134900;28;20082;-55
2022/08/09 00:41:50;;;;;;;6.53;3.95;;;;;;;;;;10140784;28;20536;-53
2022/08/09 00:47:09;;;;;;;8.90;4.13;;;;;;;;;;10137419;28;20074;-57
2022/08/09 00:52:12;;;;;;;4.78;4.25;;;;;;;;;;10139706;28;20076;-56
2022/08/09 00:57:16;;;;;;;5.72;4.13;;;;;;;;;;10139332;28;20070;-52
2022/08/09 01:02:31;;;;;;;9.02;4.15;;;;;;;;;;10138827;28;20050;-51
2022/08/09 01:07:33;;;;;;;4.40;4.00;;;;;;;;;;10138426;28;20050;-51
2022/08/09 01:12:55;;;;;;;4.82;4.35;;;;;;;;;;10141571;28;20069;-50
2022/08/09 01:17:55;;;;;;;7.20;4.28;;;;;;;;;;10138810;28;20085;-50
2022/08/09 01:23:03;;;;;;;4.60;4.15;;;;;;;;;;10140399;28;20070;-53
2022/08/09 01:28:23;;;;;;;5.85;4.22;;;;;;;;;;10132038;28;20072;-53
2022/08/09 01:33:25;;;;;;;7.05;4.78;;;;;;;;;;10124076;28;20504;-53
2022/08/09 01:38:26;;;;;;;5.90;4.70;;;;;;;;;;10138585;28;20066;-54
2022/08/09 01:43:25;;;;;;;5.90;4.32;;;;;;;;;;10141464;28;20511;-56
2022/08/09 01:48:29;;;;;;;5.68;4.30;;;;;;;;;;10132553;28;20050;-53
2022/08/09 01:53:29;;;;;;;5.53;4.85;;;;;;;;;;10138666;28;20039;-59
2022/08/09 01:58:42;;;;;;;5.10;4.25;;;;;;;;;;10133228;28;20074;-53
2022/08/09 02:03:47;;;;;;;6.03;5.03;;;;;;;;;;10136816;28;20062;-53
2022/08/09 02:08:45;;;;;;;7.35;4.65;;;;;;;;;;10136443;28;20089;-53
2022/08/09 02:13:58;;;;;;;5.47;4.82;;;;;;;;;;10135299;28;20073;-54
2022/08/09 02:19:05;;;;;;;6.88;5.03;;;;;;;;;;10138959;28;20090;-56
2022/08/09 02:24:05;;;;;;;6.93;4.82;;;;;;;;;;10141864;28;20081;-54
2022/08/09 02:29:13;;;;;;;7.72;4.65;;;;;;;;;;10130300;28;20365;-56
2022/08/09 02:34:13;;;;;;;5.10;4.43;;;;;;;;;;10127064;28;20081;-54
2022/08/09 02:39:35;;;;;;;5.75;5.15;;;;;;;;;;10145284;28;20082;-57
2022/08/09 02:44:42;;;;;;;5.43;4.75;;;;;;;;;;10133285;28;20078;-52
2022/08/09 02:49:45;;;;;;;5.13;4.63;;;;;;;;;;10134990;28;20165;-54
2022/08/09 02:54:54;;;;;;;13.57;5.13;;;;;;;;;;10141432;28;20066;-54
2022/08/09 02:59:56;;;;;;;5.88;4.57;;;;;;;;;;10135759;28;20081;-52
2022/08/09 03:05:15;;;;;;;6.78;4.47;;;;;;;;;;10135800;28;20089;-54
2022/08/09 03:10:14;;;;;;;5.80;5.20;;;;;;;;;;10135281;28;20081;-56
2022/08/09 03:15:15;;;;;;;6.03;5.28;;;;;;;;;;10134408;28;20082;-54
2022/08/09 03:20:14;;;;;;;6.43;5.65;;;;;;;;;;10135069;28;20563;-53
2022/08/09 03:25:13;;;;;;;14.68;5.88;;;;;;;;;;10150346;28;20078;-54
2022/08/09 03:30:32;;;;;;;6.30;5.30;;;;;;;;;;10146090;28;20459;-54
2022/08/09 03:35:34;;;;;;;6.85;4.95;;;;;;;;;;10140203;28;20539;-53
2022/08/09 03:40:52;;;;;;;6.65;4.95;;;;;;;;;;10139664;28;20541;-55
2022/08/09 03:45:52;;;;;;;7.80;5.70;;;;;;;;;;10139558;28;20069;-56
2022/08/09 03:51:11;;;;;;;6.22;5.45;;;;;;;;;;10134587;28;20082;-56
2022/08/09 03:56:30;;;;;;;7.75;5.43;;;;;;;;;;10142975;28;20468;-55
2022/08/09 04:01:30;;;;;;;7.05;5.30;;;;;;;;;;10145081;28;20077;-56
2022/08/09 04:06:29;;;;;;;6.90;5.93;;;;;;;;;;10142951;28;20055;-57
2022/08/09 04:11:29;;;;;;;5.35;4.90;;;;;;;;;;10153561;28;20081;-55
2022/08/09 04:16:31;;;;;;;6.35;5.38;;;;;;;;;;10142605;28;20226;-56
2022/08/09 04:21:29;;;;;;;6.97;5.32;;;;;;;;;;10153216;28;20090;-53
2022/08/09 04:26:35;;;;;;;7.95;5.57;;;;;;;;;;10141893;28;20070;-54
2022/08/09 04:31:36;;;;;;;6.72;6.05;;;;;;;;;;10146674;28;20468;-54
2022/08/09 04:36:45;;;;;;;6.82;5.95;;;;;;;;;;10135343;28;20436;-54
2022/08/09 04:41:47;;;;;;;7.18;6.32;;;;;;;;;;10147450;28;20081;-55
2022/08/09 04:46:47;;;;;;;7.15;5.75;;;;;;;;;;10148029;28;20106;-55
2022/08/09 04:51:57;;;;;;;9.25;5.55;;;;;;;;;;10155713;28;20626;-51
2022/08/09 04:56:55;;;;;;;6.18;5.07;;;;;;;;;;10154794;28;20077;-48
2022/08/09 05:01:56;;;;;;;6.47;5.97;;;;;;;;;;10138770;28;20090;-53
2022/08/09 05:06:54;;;;;;;7.85;6.30;;;;;;;;;;10152802;28;20073;-56
2022/08/09 05:11:55;;;;;;;7.55;5.78;;;;;;;;;;10148408;28;20077;-52
2022/08/09 05:16:58;;;;;;;11.73;6.05;;;;;;;;;;10154664;28;20504;-51
2022/08/09 05:21:58;;;;;;;6.95;6.22;;;;;;;;;;10143111;28;20516;-53
2022/08/09 05:26:57;;;;;;;8.65;6.63;;;;;;;;;;10154568;28;20077;-51
2022/08/09 05:31:59;;;;;;;9.90;5.47;;;;;;;;;;10154173;28;20070;-53
2022/08/09 05:36:59;;;;;;;10.45;5.80;;;;;;;;;;10154061;28;20070;-53
2022/08/09 05:42:02;;;;;;;11.50;5.80;;;;;;;;;;10139261;28;20512;-57
2022/08/09 05:47:03;;;;;;;6.75;5.50;;;;;;;;;;10140326;28;20078;-56
2022/08/09 05:52:04;;;;;;;6.45;5.00;;;;;;;;;;10136574;28;20543;-56
2022/08/09 05:57:03;;;;;;;9.27;5.15;;;;;;;;;;10142683;28;20072;-53
2022/08/09 06:02:03;;;;;;;7.97;5.50;;;;;;;;;;10134654;28;20081;-56
2022/08/09 06:07:01;;;;;;;9.27;5.90;;;;;;;;;;10134313;28;20542;-58
2022/08/09 06:12:02;;;;;;;8.98;5.68;;;;;;;;;;10135165;28;20098;-57
2022/08/09 06:17:00;;;;;;;9.00;7.10;;;;;;;;;;10134028;28;20070;-55
2022/08/09 06:22:06;;;;;;;8.73;5.63;;;;;;;;;;10152957;28;20089;-55
2022/08/09 06:27:14;;;;;;;9.82;5.50;;;;;;;;;;10152054;28;20073;-55
2022/08/09 06:32:12;;;;;;;6.60;5.05;;;;;;;;;;10150722;28;20078;-54
2022/08/09 06:37:31;;;;;;;8.38;6.63;;;;;;;;;;10148144;28;20070;-55
2022/08/09 06:42:51;;;;;;;5.82;5.30;;;;;;;;;;10146052;28;20082;-56
2022/08/09 06:47:49;;;;;;;8.82;6.13;;;;;;;;;;10144383;28;21917;-59
2022/08/09 06:52:59;;;;;;;8.70;5.57;;;;;;;;;;10149810;28;20065;-57
2022/08/09 06:57:59;;;;;;;6.30;5.32;;;;;;;;;;10152860;28;20069;-56
2022/08/09 07:03:01;;;;;;;7.72;6.00;;;;;;;;;;10148775;28;20074;-56
2022/08/09 07:08:03;;;;;;;6.72;6.07;;;;;;;;;;10145415;28;20088;-55
2022/08/09 07:13:03;;;;;;;8.35;5.80;;;;;;;;;;10146886;28;20577;-56
2022/08/09 07:18:21;;;;;;;10.52;7.85;;;;;;;;;;10144633;28;20085;-54
2022/08/09 07:23:19;;;;;;;7.65;5.53;;;;;;;;;;10149253;28;20074;-56
2022/08/09 07:28:21;;;;;;;10.60;5.40;;;;;;;;;;10149813;28;20077;-56
2022/08/09 07:33:25;;;;;;;7.78;5.35;;;;;;;;;;10149271;28;20516;-57
2022/08/09 07:38:28;;;;;;;17.00;6.47;;;;;;;;;;10146925;28;20070;-56
2022/08/09 07:43:29;;;;;;;7.93;6.63;;;;;;;;;;10145512;28;20077;-56
2022/08/09 07:48:38;;;;;;;9.13;6.00;;;;;;;;;;10130611;28;20591;-56
2022/08/09 07:53:38;;;;;;;9.05;7.63;;;;;;;;;;10133158;28;20404;-54
2022/08/09 07:58:57;;;;;;;13.10;9.48;;;;;;;;;;10134613;28;20480;-58
2022/08/09 08:03:56;;;;;;;7.45;5.43;;;;;;;;;;10140732;28;20505;-56
2022/08/09 08:08:56;;;;;;;11.90;5.50;;;;;;;;;;10146971;28;20078;-55
2022/08/09 08:14:03;;;;;;;5.75;4.85;;;;;;;;;;10148472;28;20474;-56
2022/08/09 08:19:03;;;;;;;9.80;4.40;;;;;;;;;;10135559;28;20078;-57
2022/08/09 08:24:01;;;;;;;6.75;5.25;;;;;;;;;;10138894;28;20074;-57
2022/08/09 08:29:18;;;;;;;6.25;4.68;;;;;;;;;;10141500;28;20093;-57
2022/08/09 08:34:24;;;;;;;10.45;4.32;;;;;;;;;;10142074;28;20066;-54
2022/08/09 08:39:22;;;;;;;6.88;4.63;;;;;;;;;;10142081;28;20613;-55
2022/08/09 08:44:23;;;;;;;10.18;4.90;;;;;;;;;;10136263;28;20076;-56
2022/08/09 08:49:27;;;;;;;11.75;4.63;;;;;;;;;;10136240;28;20070;-57
2022/08/09 08:54:35;;;;;;;9.73;5.47;;;;;;;;;;10135498;28;20070;-56
2022/08/09 08:59:35;;;;;;;8.45;4.45;;;;;;;;;;10132825;28;20461;-57
2022/08/09 09:04:45;;;;;;;9.85;5.20;;;;;;;;;;10134577;28;20476;-57
2022/08/09 09:09:50;;;;;;;17.80;4.93;;;;;;;;;;10140733;28;20085;-57
2022/08/09 09:15:04;;;;;;;6.50;4.38;;;;;;;;;;10144666;28;20428;-57
2022/08/09 09:20:06;;;;;;;6.85;4.40;;;;;;;;;;10139026;28;20090;-56
2022/08/09 09:25:05;;;;;;;7.30;4.43;;;;;;;;;;10139601;28;20065;-56
2022/08/09 09:30:24;;;;;;;9.10;3.97;;;;;;;;;;10139686;28;20089;-56
2022/08/09 09:35:51;;;;;;;7.38;4.30;;;;;;;;;;10139290;28;20073;-56
2022/08/09 09:40:59;;;;;;;11.43;4.28;;;;;;;;;;10138703;28;20077;-56
2022/08/09 09:46:01;;;;;;;8.57;4.40;;;;;;;;;;10138802;28;20078;-55
2022/08/09 09:51:20;;;;;;;6.00;3.63;;;;;;;;;;10137464;28;20086;-57
2022/08/09 09:56:39;;;;;;;9.73;4.05;;;;;;;;;;10131021;28;20061;-55
2022/08/09 10:02:00;;;;;;;4.18;3.63;;;;;;;;;;10133404;28;20075;-55
2022/08/09 10:06:59;;;;;;;13.30;4.53;;;;;;;;;;10136097;28;20512;-57
2022/08/09 10:12:07;;;;;;;6.18;3.03;;;;;;;;;;10135687;28;20500;-56
2022/08/09 10:17:31;;;;;;;6.10;3.92;;;;;;;;;;10137271;28;20523;-58
2022/08/09 10:22:52;;;;;;;8.52;3.63;;;;;;;;;;10134938;28;20113;-58
2022/08/09 10:27:57;;;;;;;7.68;3.65;;;;;;;;;;10132992;28;20038;-57
2022/08/09 10:32:58;;;;;;;9.35;4.25;;;;;;;;;;10137725;28;20065;-56
2022/08/09 10:37:57;;;;;;;4.85;3.03;;;;;;;;;;10147371;28;20321;-57
2022/08/09 10:42:55;;;;;;;5.97;3.70;;;;;;;;;;10137252;28;20062;-56
2022/08/09 10:48:03;;;;;;;9.25;3.92;;;;;;;;;;10138442;28;20076;-57
2022/08/09 10:53:33;;;;;;;9.52;3.63;;;;;;;;;;10128913;28;20085;-57
2022/08/09 10:58:36;;;;;;;9.15;3.60;;;;;;;;;;10118517;28;20081;-55
2022/08/09 11:03:36;;;;;;;4.28;3.40;;;;;;;;;;10135051;28;20066;-56
2022/08/09 11:08:49;;;;;;;8.30;3.80;;;;;;;;;;10134008;28;20181;-56
2022/08/09 11:14:05;;;;;;;8.48;3.53;;;;;;;;;;10133658;28;20073;-57
2022/08/09 11:19:07;;;;;;;6.20;2.90;;;;;;;;;;10119069;28;20085;-58
2022/08/09 11:24:09;;;;;;;11.70;3.40;;;;;;;;;;10133761;28;20066;-57
2022/08/09 11:29:08;;;;;;;8.65;4.47;;;;;;;;;;10134086;28;20074;-56
2022/08/09 11:34:09;;;;;;;9.15;3.65;;;;;;;;;;10132985;28;20516;-54
2022/08/09 11:39:08;;;;;;;6.47;2.97;;;;;;;;;;10133629;28;20047;-57
2022/08/09 11:44:08;;;;;;;8.60;3.00;;;;;;;;;;10127685;28;20073;-57
2022/08/09 11:49:08;;;;;;;6.75;2.80;;;;;;;;;;10124886;28;20077;-58
2022/08/09 11:54:15;;;;;;;11.38;3.33;;;;;;;;;;10135279;28;20084;-58
2022/08/09 11:59:27;;;;;;;8.65;3.17;;;;;;;;;;10133979;28;20085;-57
2022/08/09 12:04:31;;;;;;;9.02;2.97;;;;;;;;;;10140200;28;20077;-57
2022/08/09 12:09:35;;;;;;;6.68;2.88;;;;;;;;;;10127601;28;20082;-56
2022/08/09 12:14:34;;;;;;;7.10;2.67;;;;;;;;;;10122421;28;20081;-57
2022/08/09 12:19:54;;;;;;;6.68;3.30;;;;;;;;;;10143788;28;20081;-57
2022/08/09 12:25:10;;;;;;;9.50;2.97;;;;;;;;;;10146867;28;20078;-56
2022/08/09 12:30:12;;;;;;;7.15;2.63;;;;;;;;;;10142391;28;20062;-57
2022/08/09 12:35:31;;;;;;;6.63;2.40;;;;;;;;;;10140446;28;20090;-53
2022/08/09 12:40:43;;;;;;;3.38;2.35;;;;;;;;;;10135019;28;20066;-56
2022/08/09 12:45:45;;;;;;;2.97;2.72;;;;;;;;;;10137488;28;20079;-57
2022/08/09 12:50:59;;;;;;;5.18;2.35;;;;;;;;;;10133826;28;20380;-56
2022/08/09 12:56:04;;;;;;;5.57;2.40;;;;;;;;;;10140019;28;20070;-55
2022/08/09 13:01:25;;;;;;;5.95;2.90;;;;;;;;;;10142201;28;20082;-56
2022/08/09 13:06:31;;;;;;;5.10;2.60;;;;;;;;;;10127844;28;20046;-56
2022/08/09 13:11:33;;;;;;;4.25;2.80;;;;;;;;;;10134104;28;20074;-56
2022/08/09 13:16:40;;;;;;;9.32;3.28;;;;;;;;;;10138823;28;20066;-57
2022/08/09 13:21:44;;;;;;;9.10;3.53;;;;;;;;;;10132195;28;20085;-56
2022/08/09 13:27:02;;;;;;;5.10;2.90;;;;;;;;;;10137155;28;20524;-58
2022/08/09 13:32:05;;;;;;;10.20;3.20;;;;;;;;;;10137933;28;20077;-58
2022/08/09 13:37:19;;;;;;;5.45;2.60;;;;;;;;;;10138000;28;20061;-56
2022/08/09 13:42:37;;;;;;;5.60;2.78;;;;;;;;;;10138041;28;20070;-56
2022/08/09 13:47:37;;;;;;;7.95;2.72;;;;;;;;;;10137486;28;20129;-57
2022/08/09 13:52:50;;;;;;;5.32;3.03;;;;;;;;;;10137029;28;20113;-58
2022/08/09 13:57:48;;;;;;;7.75;2.90;;;;;;;;;;10137008;28;20049;-56
2022/08/09 14:02:55;;;;;;;6.22;2.50;;;;;;;;;;10137711;28;20081;-57
2022/08/09 14:08:15;;;;;;;10.43;3.00;;;;;;;;;;10138706;28;20526;-56
2022/08/09 14:13:14;;;;;;;7.13;3.58;;;;;;;;;;10137213;28;20073;-56
2022/08/09 14:18:32;;;;;;;7.43;3.20;;;;;;;;;;10136899;28;20081;-57
2022/08/09 14:23:33;;;;;;;6.95;2.40;;;;;;;;;;10131396;28;20558;-57
2022/08/09 14:28:51;;;;;;;8.82;2.65;;;;;;;;;;10134528;28;20070;-57
2022/08/09 14:33:49;;;;;;;11.40;3.22;;;;;;;;;;10138050;28;20066;-56
2022/08/09 14:38:53;;;;;;;11.48;2.78;;;;;;;;;;10133442;28;20487;-56
2022/08/09 14:43:51;;;;;;;8.10;2.60;;;;;;;;;;10135211;28;20072;-57
2022/08/09 14:48:50;;;;;;;5.07;2.53;;;;;;;;;;10134317;28;20069;-55
2022/08/09 14:53:49;;;;;;;4.50;2.20;;;;;;;;;;10134506;28;20094;-56
2022/08/09 14:58:51;;;;;;;4.95;2.40;;;;;;;;;;10134308;28;20074;-58
2022/08/09 15:03:55;;;;;;;5.45;2.53;;;;;;;;;;10133973;28;20542;-57
2022/08/09 15:08:53;;;;;;;8.05;3.90;;;;;;;;;;10133456;28;20066;-54
2022/08/09 15:13:55;;;;;;;4.93;2.55;;;;;;;;;;10133606;28;20073;-57
2022/08/09 15:19:10;;;;;;;4.65;2.60;;;;;;;;;;10137406;28;20477;-57
2022/08/09 15:24:17;;;;;;;6.50;2.80;;;;;;;;;;10134297;28;20069;-55
2022/08/09 15:29:25;;;;;;;6.68;3.25;;;;;;;;;;10134332;28;20082;-57
2022/08/09 15:34:43;;;;;;;3.65;2.10;;;;;;;;;;10131631;28;20074;-56
2022/08/09 15:39:42;;;;;;;7.90;3.33;;;;;;;;;;10133482;28;20066;-57
2022/08/09 15:44:57;;;;;;;5.65;3.08;;;;;;;;;;10143099;28;20066;-56
2022/08/09 15:49:55;;;;;;;6.20;3.33;;;;;;;;;;10144792;28;20530;-57
2022/08/09 15:55:02;;;;;;;4.22;2.50;;;;;;;;;;10142018;28;20072;-57
2022/08/09 16:00:01;;;;;;;8.68;2.70;;;;;;;;;;10141035;28;20070;-56
2022/08/09 16:05:01;;;;;;;6.88;2.47;;;;;;;;;;10147534;28;20082;-58
2022/08/09 16:10:04;;;;;;;2.23;1.93;;;;;;;;;;10142015;28;20066;-57
2022/08/09 16:15:10;;;;;;;4.18;2.20;;;;;;;;;;10141273;28;20110;-57
2022/08/09 16:20:29;;;;;;;6.47;2.35;;;;;;;;;;10141300;28;20078;-56
2022/08/09 16:25:27;;;;;;;5.35;2.03;;;;;;;;;;10140860;28;20074;-55
2022/08/09 16:30:39;;;;;;;3.75;2.00;;;;;;;;;;10141163;28;20085;-55
2022/08/09 16:35:42;;;;;;;3.00;2.42;;;;;;;;;;10140500;28;20070;-56
2022/08/09 16:40:57;;;;;;;6.07;2.50;;;;;;;;;;10140998;28;20069;-56
2022/08/09 16:46:06;;;;;;;6.13;2.50;;;;;;;;;;10140256;28;20085;-57
2022/08/09 16:51:07;;;;;;;6.22;2.08;;;;;;;;;;10141068;28;20066;-56
2022/08/09 16:56:11;;;;;;;8.32;3.67;;;;;;;;;;10140064;28;20078;-57
2022/08/09 17:01:11;;;;;;;3.65;2.13;;;;;;;;;;10138881;28;20085;-55
2022/08/09 17:06:09;;;;;;;6.47;2.63;;;;;;;;;;10142090;28;20086;-55
2022/08/09 17:11:27;;;;;;;7.90;2.92;;;;;;;;;;10140512;28;20259;-53
2022/08/09 17:16:40;;;;;;;3.30;2.22;;;;;;;;;;10132726;28;20493;-54
2022/08/09 17:21:39;;;;;;;9.85;3.40;;;;;;;;;;10132527;28;20079;-53
2022/08/09 17:26:43;;;;;;;4.75;2.63;;;;;;;;;;10133146;28;20082;-56
2022/08/09 17:31:51;;;;;;;7.45;3.20;;;;;;;;;;10138312;28;20074;-57
2022/08/09 17:36:50;;;;;;;5.28;2.67;;;;;;;;;;10138532;28;20070;-55
2022/08/09 17:41:50;;;;;;;4.85;3.20;;;;;;;;;;10137202;28;20105;-55
2022/08/09 17:46:50;;;;;;;10.32;6.38;;;;;;;;;;10137747;28;20099;-52
2022/08/09 17:51:54;;;;;;;6.93;4.68;;;;;;;;;;10137904;28;20477;-52
2022/08/09 17:56:53;;;;;;;4.32;2.90;;;;;;;;;;10137648;28;20139;-56
2022/08/09 18:01:53;;;;;;;4.28;2.60;;;;;;;;;;10137379;28;20190;-55
2022/08/09 18:07:11;;;;;;;5.13;3.75;;;;;;;;;;10137052;28;20093;-56
2022/08/09 18:12:20;;;;;;;6.13;3.33;;;;;;;;;;10137071;28;20085;-57
2022/08/09 18:17:38;;;;;;;7.50;2.75;;;;;;;;;;10136906;28;20089;-58
2022/08/09 18:22:56;;;;;;;6.45;3.10;;;;;;;;;;10134085;28;20150;-56
2022/08/09 18:28:03;;;;;;;5.30;1.92;;;;;;;;;;10134907;28;20081;-56
2022/08/09 18:33:20;;;;;;;7.13;3.08;;;;;;;;;;10137484;28;20070;-56
2022/08/09 18:38:20;;;;;;;4.60;2.35;;;;;;;;;;10137092;28;20078;-55
2022/08/09 18:43:19;;;;;;;4.68;2.58;;;;;;;;;;10135605;28;20417;-56
2022/08/09 18:48:21;;;;;;;5.13;2.45;;;;;;;;;;10135230;28;20066;-55
2022/08/09 18:53:28;;;;;;;12.48;3.20;;;;;;;;;;10139029;28;20046;-55
2022/08/09 18:58:46;;;;;;;8.63;3.17;;;;;;;;;;10131942;28;20487;-57
2022/08/09 19:03:54;;;;;;;8.93;2.75;;;;;;;;;;10148346;28;20077;-57
2022/08/09 19:09:03;;;;;;;11.48;2.55;;;;;;;;;;10141259;28;20078;-55
2022/08/09 19:14:03;;;;;;;7.03;2.78;;;;;;;;;;10148980;28;20468;-54
2022/08/09 19:19:05;;;;;;;5.95;2.22;;;;;;;;;;10149046;28;20069;-56
2022/08/09 19:24:23;;;;;;;4.57;2.35;;;;;;;;;;10135299;28;20085;-57
2022/08/09 19:29:35;;;;;;;3.83;2.72;;;;;;;;;;10131796;28;20058;-57
2022/08/09 19:34:55;;;;;;;3.50;1.65;;;;;;;;;;10148961;28;20093;-57
2022/08/09 19:39:54;;;;;;;1.95;1.80;;;;;;;;;;10149223;28;20077;-54
2022/08/09 19:45:02;;;;;;;5.15;2.13;;;;;;;;;;10146139;28;20516;-56
2022/08/09 19:50:03;;;;;;;2.85;2.10;;;;;;;;;;10147047;28;20077;-58
2022/08/09 19:55:22;;;;;;;3.83;2.05;;;;;;;;;;10146666;28;20068;-55
2022/08/09 20:00:41;;;;;;;4.78;3.15;;;;;;;;;;10144157;28;20077;-54
2022/08/09 20:05:41;;;;;;;9.48;3.88;;;;;;;;;;10147137;28;20081;-57
2022/08/09 20:10:45;;;;;;;13.57;4.43;;;;;;;;;;10149511;28;20062;-56
2022/08/09 20:15:45;;;;;;;7.82;3.75;;;;;;;;;;10147854;28;20088;-56
2022/08/09 20:21:05;;;;;;;6.35;3.30;;;;;;;;;;10144407;28;20074;-57
2022/08/09 20:26:05;;;;;;;4.32;2.55;;;;;;;;;;10147360;28;20607;-57
2022/08/09 20:31:04;;;;;;;5.80;2.65;;;;;;;;;;10143977;28;20059;-58
2022/08/09 20:36:08;;;;;;;6.90;3.35;;;;;;;;;;10148036;28;20042;-55
2022/08/09 20:41:06;;;;;;;3.55;2.47;;;;;;;;;;10151591;28;20146;-56
2022/08/09 20:46:04;;;;;;;8.23;3.58;;;;;;;;;;10163029;28;20526;-57
2022/08/09 20:51:24;;;;;;;8.60;3.00;;;;;;;;;;10152904;28;20074;-53
2022/08/09 20:56:22;;;;;;;7.32;2.95;;;;;;;;;;10156233;28;20062;-56
2022/08/09 21:01:23;;;;;;;5.97;2.70;;;;;;;;;;10152814;28;20066;-58
2022/08/09 21:06:42;;;;;;;7.15;3.55;;;;;;;;;;10156005;28;20081;-55
2022/08/09 21:11:41;;;;;;;6.90;4.03;;;;;;;;;;10154998;28;20076;-55
2022/08/09 21:17:00;;;;;;;5.70;4.03;;;;;;;;;;10154550;28;20112;-54
2022/08/09 21:22:20;;;;;;;8.38;3.35;;;;;;;;;;10155293;28;20084;-56
2022/08/09 21:27:36;;;;;;;5.18;2.70;;;;;;;;;;10158398;28;20085;-57
2022/08/09 21:32:54;;;;;;;3.80;3.15;;;;;;;;;;10155846;28;20066;-57
2022/08/09 21:37:55;;;;;;;6.20;3.60;;;;;;;;;;10154252;28;20042;-56
2022/08/09 21:42:57;;;;;;;5.88;3.55;;;;;;;;;;10155128;28;20077;-56
2022/08/09 21:47:55;;;;;;;7.03;2.97;;;;;;;;;;10143050;28;20532;-56
2022/08/09 21:52:55;;;;;;;11.23;4.22;;;;;;;;;;10154778;28;20424;-54
2022/08/09 21:57:53;;;;;;;6.95;4.13;;;;;;;;;;10151661;28;20305;-54
2022/08/09 22:02:56;;;;;;;;;;;;;;;;;;10153290;28;20688;-55
2022/08/09 22:07:57;;;;;;;6.30;4.00;;;;;;;;;;10153977;28;19953;-56
2022/08/09 22:12:58;;;;;;;6.25;4.40;;;;;;;;;;10151881;28;20069;-56
2022/08/09 22:17:56;;;;;;;9.13;4.43;;;;;;;;;;10154541;28;20568;-55
2022/08/09 22:22:55;;;;;;;8.30;4.30;;;;;;;;;;10152230;28;20473;-57
2022/08/09 22:27:55;;;;;;;10.02;4.60;;;;;;;;;;10152679;28;20073;-57
2022/08/09 22:32:55;;;;;;;11.07;4.63;;;;;;;;;;10136287;28;20066;-56
2022/08/09 22:37:54;;;;;;;7.97;4.55;;;;;;;;;;10137099;28;20074;-57
2022/08/09 22:43:06;;;;;;;7.40;4.50;;;;;;;;;;10134588;28;20446;-56
2022/08/09 22:48:13;;;;;;;5.93;3.35;;;;;;;;;;10136911;28;20478;-56
2022/08/09 22:53:32;;;;;;;8.38;3.65;;;;;;;;;;10135866;28;20078;-56
2022/08/09 22:58:51;;;;;;;9.25;4.00;;;;;;;;;;10128198;28;20054;-56
2022/08/09 23:03:50;;;;;;;6.95;3.92;;;;;;;;;;10134244;28;20081;-57
2022/08/09 23:09:02;;;;;;;5.28;2.95;;;;;;;;;;10137291;28;20093;-57
2022/08/09 23:14:01;;;;;;;4.43;3.08;;;;;;;;;;10134162;28;20042;-56
2022/08/09 23:19:00;;;;;;;4.38;2.72;;;;;;;;;;10135174;28;20076;-57
2022/08/09 23:23:59;;;;;;;7.18;2.55;;;;;;;;;;10133759;28;20066;-55
2022/08/09 23:29:05;;;;;;;7.75;2.83;;;;;;;;;;10137312;28;20081;-56
2022/08/09 23:34:04;;;;;;;3.40;2.92;;;;;;;;;;10133462;28;20093;-57
2022/08/09 23:39:04;;;;;;;4.72;2.45;;;;;;;;;;10133392;28;20062;-58
2022/08/09 23:44:03;;;;;;;5.10;2.40;;;;;;;;;;10136653;28;20070;-57
2022/08/09 23:49:03;;;;;;;4.28;3.03;;;;;;;;;;10141161;28;20089;-59
2022/08/09 23:54:01;;;;;;;3.80;2.97;;;;;;;;;;10132939;28;20074;-53
2022/08/09 23:59:00;;;;;;;5.10;2.60;;;;;;;;;;10133120;28;20081;-53
